JBU2538 MDSD-TJSJ
Flight info
| Callsign | JBU2538 |
|---|---|
| Flight time | 0h 39m |
| Altitude | 23000 |
| Route | MELLA4J MELLA G633 MAZ RTE12 JOSHE JOSHE3 |
| Aircraft | A21N/M-SDE2E3FGHIRWXY/LB1 |
Departure
| Time | 2026-05-06 02:02 |
|---|---|
| Airport | Las Américas International Airport (MDSD) |
Arrival
| Time | 2026-05-06 02:42 |
|---|---|
| Airport | Luis Munoz Marin International Airport (TJSJ) |
| Time | Latitude | Longitude | Altitude | Speed | Heading |
|---|---|---|---|---|---|
| 2026-05-06 01:42 | 18.43239 | -69.67651 | 47 ft | 0 kts | 213° |
| 2026-05-06 01:54 | 18.43242 | -69.67649 | 47 ft | 1 kts | 219° |
| 2026-05-06 01:54 | 18.43253 | -69.67638 | 47 ft | 2 kts | 210° |
| 2026-05-06 01:55 | 18.43266 | -69.67632 | 47 ft | 2 kts | 208° |
| 2026-05-06 01:55 | 18.43279 | -69.67624 | 48 ft | 2 kts | 211° |
| 2026-05-06 01:55 | 18.43292 | -69.67615 | 48 ft | 2 kts | 210° |
| 2026-05-06 01:55 | 18.43300 | -69.67610 | 49 ft | 2 kts | 210° |
| 2026-05-06 01:56 | 18.43317 | -69.67600 | 49 ft | 2 kts | 210° |
| 2026-05-06 01:56 | 18.43326 | -69.67595 | 49 ft | 2 kts | 210° |
| 2026-05-06 01:56 | 18.43343 | -69.67583 | 50 ft | 2 kts | 234° |
| 2026-05-06 01:56 | 18.43349 | -69.67568 | 50 ft | 2 kts | 263° |
| 2026-05-06 01:57 | 18.43347 | -69.67552 | 50 ft | 2 kts | 294° |
| 2026-05-06 01:57 | 18.43342 | -69.67543 | 50 ft | 2 kts | 313° |
| 2026-05-06 01:57 | 18.43333 | -69.67536 | 51 ft | 0 kts | 334° |
| 2026-05-06 01:57 | 18.43327 | -69.67533 | 51 ft | 0 kts | 338° |
| 2026-05-06 01:59 | 18.43340 | -69.67539 | 51 ft | 6 kts | 339° |
| 2026-05-06 01:59 | 18.43411 | -69.67533 | 51 ft | 14 kts | 12° |
| 2026-05-06 01:59 | 18.43481 | -69.67542 | 50 ft | 15 kts | 339° |
| 2026-05-06 01:59 | 18.43617 | -69.67601 | 49 ft | 16 kts | 338° |
| 2026-05-06 02:00 | 18.43723 | -69.67643 | 48 ft | 16 kts | 339° |
| 2026-05-06 02:00 | 18.43832 | -69.67687 | 47 ft | 17 kts | 339° |
| 2026-05-06 02:00 | 18.43907 | -69.67718 | 46 ft | 17 kts | 338° |
| 2026-05-06 02:00 | 18.44062 | -69.67783 | 44 ft | 18 kts | 339° |
| 2026-05-06 02:01 | 18.44150 | -69.67730 | 46 ft | 15 kts | 66° |
| 2026-05-06 02:01 | 18.44187 | -69.67631 | 48 ft | 14 kts | 69° |
| 2026-05-06 02:01 | 18.44205 | -69.67568 | 49 ft | 12 kts | 96° |
| 2026-05-06 02:01 | 18.44056 | -69.67487 | 52 ft | 47 kts | 160° |
| 2026-05-06 02:02 | 18.43533 | -69.67296 | 59 ft | 111 kts | 160° |
| 2026-05-06 02:02 | 18.42604 | -69.66954 | 72 ft | 165 kts | 160° |
| 2026-05-06 02:02 | 18.41846 | -69.66688 | 276 ft | 177 kts | 161° |
| 2026-05-06 02:02 | 18.40407 | -69.66169 | 1271 ft | 164 kts | 160° |
| 2026-05-06 02:03 | 18.39343 | -69.65747 | 1790 ft | 162 kts | 156° |
| 2026-05-06 02:03 | 18.38252 | -69.65281 | 2025 ft | 172 kts | 156° |
| 2026-05-06 02:03 | 18.37507 | -69.64939 | 2186 ft | 179 kts | 148° |
| 2026-05-06 02:03 | 18.36629 | -69.63998 | 2401 ft | 189 kts | 116° |
| 2026-05-06 02:04 | 18.36078 | -69.62155 | 2730 ft | 208 kts | 104° |
| 2026-05-06 02:04 | 18.35696 | -69.60603 | 2977 ft | 225 kts | 105° |
| 2026-05-06 02:04 | 18.35423 | -69.59523 | 3189 ft | 236 kts | 105° |
| 2026-05-06 02:04 | 18.34828 | -69.57201 | 3642 ft | 257 kts | 105° |
| 2026-05-06 02:05 | 18.34509 | -69.55975 | 4045 ft | 260 kts | 105° |
| 2026-05-06 02:05 | 18.34034 | -69.54157 | 4749 ft | 261 kts | 106° |
| 2026-05-06 02:05 | 18.33550 | -69.52305 | 5446 ft | 263 kts | 106° |
| 2026-05-06 02:05 | 18.33064 | -69.50462 | 6166 ft | 265 kts | 106° |
| 2026-05-06 02:06 | 18.32403 | -69.47954 | 7094 ft | 269 kts | 106° |
| 2026-05-06 02:06 | 18.32071 | -69.46700 | 7514 ft | 272 kts | 106° |
| 2026-05-06 02:06 | 18.31560 | -69.44759 | 7932 ft | 274 kts | 106° |
| 2026-05-06 02:06 | 18.30939 | -69.42152 | 8053 ft | 275 kts | 101° |
| 2026-05-06 02:07 | 18.30736 | -69.40829 | 8067 ft | 277 kts | 98° |
| 2026-05-06 02:07 | 18.30554 | -69.38774 | 8414 ft | 283 kts | 95° |
| 2026-05-06 02:07 | 18.30406 | -69.36729 | 9179 ft | 282 kts | 95° |
| 2026-05-06 02:07 | 18.30260 | -69.34667 | 9879 ft | 284 kts | 95° |
| 2026-05-06 02:08 | 18.30110 | -69.32564 | 10449 ft | 291 kts | 95° |
| 2026-05-06 02:08 | 18.29900 | -69.29652 | 10845 ft | 312 kts | 96° |
| 2026-05-06 02:08 | 18.29787 | -69.28116 | 11035 ft | 322 kts | 95° |
| 2026-05-06 02:08 | 18.29613 | -69.25740 | 11475 ft | 331 kts | 95° |
| 2026-05-06 02:09 | 18.29436 | -69.23305 | 12106 ft | 334 kts | 96° |
| 2026-05-06 02:09 | 18.29256 | -69.20853 | 12707 ft | 338 kts | 95° |
| 2026-05-06 02:09 | 18.29011 | -69.17543 | 13456 ft | 344 kts | 95° |
| 2026-05-06 02:09 | 18.28825 | -69.15035 | 14016 ft | 347 kts | 95° |
| 2026-05-06 02:10 | 18.28637 | -69.12498 | 14567 ft | 351 kts | 95° |
| 2026-05-06 02:10 | 18.28445 | -69.09888 | 15123 ft | 355 kts | 95° |
| 2026-05-06 02:10 | 18.28318 | -69.08177 | 15481 ft | 357 kts | 95° |
| 2026-05-06 02:10 | 18.28123 | -69.05557 | 16013 ft | 361 kts | 95° |
| 2026-05-06 02:11 | 18.27927 | -69.02912 | 16529 ft | 364 kts | 95° |
| 2026-05-06 02:11 | 18.27661 | -68.99348 | 17217 ft | 369 kts | 94° |
| 2026-05-06 02:11 | 18.27526 | -68.97539 | 17555 ft | 371 kts | 94° |
| 2026-05-06 02:11 | 18.27325 | -68.94854 | 18036 ft | 374 kts | 94° |
| 2026-05-06 02:12 | 18.27120 | -68.92107 | 18518 ft | 378 kts | 94° |
| 2026-05-06 02:12 | 18.26843 | -68.88418 | 19162 ft | 382 kts | 94° |
| 2026-05-06 02:12 | 18.26704 | -68.86574 | 19473 ft | 384 kts | 94° |
| 2026-05-06 02:12 | 18.26421 | -68.82820 | 20104 ft | 387 kts | 94° |
| 2026-05-06 02:13 | 18.26280 | -68.80946 | 20402 ft | 389 kts | 94° |
| 2026-05-06 02:13 | 18.26062 | -68.78061 | 20850 ft | 392 kts | 94° |
| 2026-05-06 02:13 | 18.25847 | -68.75226 | 21291 ft | 394 kts | 94° |
| 2026-05-06 02:13 | 18.25627 | -68.72329 | 21732 ft | 397 kts | 94° |
| 2026-05-06 02:14 | 18.25333 | -68.68466 | 22291 ft | 400 kts | 94° |
| 2026-05-06 02:14 | 18.25185 | -68.66531 | 22556 ft | 402 kts | 94° |
| 2026-05-06 02:14 | 18.24959 | -68.63575 | 22952 ft | 404 kts | 94° |
| 2026-05-06 02:14 | 18.24660 | -68.59660 | 23098 ft | 405 kts | 94° |
| 2026-05-06 02:15 | 18.24433 | -68.56699 | 23101 ft | 405 kts | 94° |
| 2026-05-06 02:15 | 18.24283 | -68.54746 | 23102 ft | 405 kts | 94° |
| 2026-05-06 02:15 | 18.23977 | -68.50784 | 23103 ft | 404 kts | 93° |
| 2026-05-06 02:15 | 18.23826 | -68.48826 | 23103 ft | 404 kts | 93° |
| 2026-05-06 02:16 | 18.23599 | -68.45895 | 23103 ft | 404 kts | 93° |
| 2026-05-06 02:16 | 18.23294 | -68.41947 | 23103 ft | 404 kts | 93° |
| 2026-05-06 02:16 | 18.23141 | -68.39977 | 23103 ft | 404 kts | 93° |
| 2026-05-06 02:16 | 18.22913 | -68.37051 | 23104 ft | 404 kts | 93° |
| 2026-05-06 02:17 | 18.22680 | -68.34055 | 23103 ft | 404 kts | 94° |
| 2026-05-06 02:17 | 18.22452 | -68.31134 | 23103 ft | 404 kts | 94° |
| 2026-05-06 02:17 | 18.22222 | -68.28198 | 23103 ft | 404 kts | 94° |
| 2026-05-06 02:17 | 18.21990 | -68.25246 | 23103 ft | 404 kts | 94° |
| 2026-05-06 02:18 | 18.21760 | -68.22304 | 23103 ft | 404 kts | 94° |
| 2026-05-06 02:18 | 18.21531 | -68.19391 | 23103 ft | 404 kts | 94° |
| 2026-05-06 02:18 | 18.21297 | -68.16428 | 23103 ft | 404 kts | 94° |
| 2026-05-06 02:18 | 18.21066 | -68.13501 | 23103 ft | 404 kts | 94° |
| 2026-05-06 02:19 | 18.20832 | -68.10545 | 23103 ft | 404 kts | 94° |
| 2026-05-06 02:19 | 18.20519 | -68.06596 | 23103 ft | 404 kts | 94° |
| 2026-05-06 02:19 | 18.20287 | -68.03677 | 23103 ft | 403 kts | 94° |
| 2026-05-06 02:19 | 18.20129 | -68.00700 | 23103 ft | 403 kts | 90° |
| 2026-05-06 02:20 | 18.20254 | -67.95794 | 23103 ft | 402 kts | 85° |
| 2026-05-06 02:20 | 18.20455 | -67.92838 | 23103 ft | 402 kts | 84° |
| 2026-05-06 02:20 | 18.20664 | -67.89898 | 23103 ft | 402 kts | 84° |
| 2026-05-06 02:21 | 18.20940 | -67.85975 | 23103 ft | 402 kts | 84° |
| 2026-05-06 02:21 | 18.21076 | -67.84016 | 23103 ft | 402 kts | 84° |
| 2026-05-06 02:21 | 18.21275 | -67.81115 | 23103 ft | 402 kts | 84° |
| 2026-05-06 02:21 | 18.21475 | -67.78176 | 23103 ft | 402 kts | 84° |
| 2026-05-06 02:22 | 18.21673 | -67.75253 | 23103 ft | 402 kts | 84° |
| 2026-05-06 02:22 | 18.21872 | -67.72307 | 23103 ft | 402 kts | 84° |
| 2026-05-06 02:22 | 18.22070 | -67.69369 | 23103 ft | 402 kts | 84° |
| 2026-05-06 02:22 | 18.22334 | -67.65443 | 23103 ft | 402 kts | 84° |
| 2026-05-06 02:23 | 18.22530 | -67.62517 | 23103 ft | 402 kts | 84° |
| 2026-05-06 02:23 | 18.22660 | -67.60566 | 23103 ft | 402 kts | 84° |
| 2026-05-06 02:23 | 18.22856 | -67.57636 | 23103 ft | 402 kts | 84° |
| 2026-05-06 02:23 | 18.23051 | -67.54703 | 23103 ft | 403 kts | 84° |
| 2026-05-06 02:24 | 18.23248 | -67.51730 | 23103 ft | 403 kts | 84° |
| 2026-05-06 02:24 | 18.23440 | -67.48829 | 22962 ft | 403 kts | 84° |
| 2026-05-06 02:24 | 18.23635 | -67.45856 | 22543 ft | 400 kts | 84° |
| 2026-05-06 02:24 | 18.23827 | -67.42937 | 22156 ft | 396 kts | 84° |
| 2026-05-06 02:25 | 18.24014 | -67.40079 | 21733 ft | 393 kts | 84° |
| 2026-05-06 02:25 | 18.24203 | -67.37219 | 21302 ft | 390 kts | 84° |
| 2026-05-06 02:25 | 18.24390 | -67.34354 | 20858 ft | 388 kts | 85° |
| 2026-05-06 02:25 | 18.24573 | -67.31560 | 20414 ft | 387 kts | 85° |
| 2026-05-06 02:26 | 18.24758 | -67.28724 | 19969 ft | 385 kts | 85° |
| 2026-05-06 02:26 | 18.24940 | -67.25922 | 19528 ft | 383 kts | 85° |
| 2026-05-06 02:26 | 18.25121 | -67.23135 | 19081 ft | 382 kts | 85° |
| 2026-05-06 02:26 | 18.25302 | -67.20339 | 18633 ft | 380 kts | 85° |
| 2026-05-06 02:27 | 18.25481 | -67.17565 | 18177 ft | 379 kts | 85° |
| 2026-05-06 02:27 | 18.25608 | -67.14818 | 17724 ft | 378 kts | 89° |
| 2026-05-06 02:27 | 18.25591 | -67.12038 | 17283 ft | 376 kts | 90° |
| 2026-05-06 02:27 | 18.25515 | -67.08405 | 16731 ft | 373 kts | 91° |
| 2026-05-06 02:28 | 18.25474 | -67.06590 | 16458 ft | 371 kts | 91° |
| 2026-05-06 02:28 | 18.25414 | -67.03877 | 16049 ft | 369 kts | 91° |
| 2026-05-06 02:28 | 18.25355 | -67.01180 | 15641 ft | 366 kts | 91° |
| 2026-05-06 02:28 | 18.25279 | -66.97633 | 15098 ft | 363 kts | 91° |
| 2026-05-06 02:29 | 18.25242 | -66.95853 | 14825 ft | 361 kts | 91° |
| 2026-05-06 02:29 | 18.25186 | -66.93250 | 14421 ft | 359 kts | 91° |
| 2026-05-06 02:29 | 18.25131 | -66.90623 | 14011 ft | 356 kts | 91° |
| 2026-05-06 02:29 | 18.25075 | -66.88021 | 13604 ft | 354 kts | 91° |
| 2026-05-06 02:30 | 18.25021 | -66.85459 | 13196 ft | 351 kts | 91° |
| 2026-05-06 02:30 | 18.24965 | -66.82896 | 12789 ft | 349 kts | 91° |
| 2026-05-06 02:30 | 18.24910 | -66.80333 | 12384 ft | 347 kts | 92° |
| 2026-05-06 02:30 | 18.24856 | -66.77832 | 11978 ft | 344 kts | 92° |
| 2026-05-06 02:31 | 18.24800 | -66.75315 | 11570 ft | 342 kts | 92° |
| 2026-05-06 02:31 | 18.24744 | -66.72803 | 11164 ft | 340 kts | 92° |
| 2026-05-06 02:31 | 18.24690 | -66.70352 | 10771 ft | 337 kts | 92° |
| 2026-05-06 02:31 | 18.24635 | -66.67887 | 10391 ft | 334 kts | 92° |
| 2026-05-06 02:32 | 18.24581 | -66.65467 | 10212 ft | 324 kts | 92° |
| 2026-05-06 02:32 | 18.24529 | -66.63144 | 10108 ft | 312 kts | 92° |
| 2026-05-06 02:32 | 18.24479 | -66.60892 | 9932 ft | 303 kts | 92° |
| 2026-05-06 02:32 | 18.24430 | -66.58710 | 9694 ft | 297 kts | 92° |
| 2026-05-06 02:33 | 18.24380 | -66.56551 | 9410 ft | 293 kts | 92° |
| 2026-05-06 02:33 | 18.24331 | -66.54430 | 9128 ft | 289 kts | 92° |
| 2026-05-06 02:34 | 18.25274 | -66.48373 | 8240 ft | 281 kts | 60° |
| 2026-05-06 02:34 | 18.26326 | -66.46682 | 7940 ft | 279 kts | 57° |
| 2026-05-06 02:34 | 18.27417 | -66.45007 | 7594 ft | 278 kts | 57° |
| 2026-05-06 02:34 | 18.28512 | -66.43324 | 7258 ft | 276 kts | 57° |
| 2026-05-06 02:35 | 18.29585 | -66.41658 | 6933 ft | 274 kts | 58° |
| 2026-05-06 02:35 | 18.30641 | -66.40005 | 6604 ft | 273 kts | 58° |
| 2026-05-06 02:35 | 18.31703 | -66.38337 | 6280 ft | 271 kts | 58° |
| 2026-05-06 02:35 | 18.32733 | -66.36716 | 5948 ft | 270 kts | 58° |
| 2026-05-06 02:36 | 18.33781 | -66.35065 | 5620 ft | 268 kts | 58° |
| 2026-05-06 02:36 | 18.34805 | -66.33446 | 5283 ft | 267 kts | 59° |
| 2026-05-06 02:36 | 18.35827 | -66.31829 | 4956 ft | 266 kts | 58° |
| 2026-05-06 02:36 | 18.36861 | -66.30204 | 4649 ft | 264 kts | 58° |
| 2026-05-06 02:37 | 18.37876 | -66.28607 | 4317 ft | 263 kts | 58° |
| 2026-05-06 02:37 | 18.38903 | -66.26994 | 3981 ft | 262 kts | 58° |
| 2026-05-06 02:37 | 18.39911 | -66.25407 | 3685 ft | 260 kts | 58° |
| 2026-05-06 02:37 | 18.40907 | -66.23840 | 3363 ft | 260 kts | 58° |
| 2026-05-06 02:38 | 18.41909 | -66.22262 | 3062 ft | 258 kts | 58° |
| 2026-05-06 02:38 | 18.42885 | -66.20686 | 2740 ft | 257 kts | 65° |
| 2026-05-06 02:38 | 18.43378 | -66.18916 | 2487 ft | 250 kts | 85° |
| 2026-05-06 02:38 | 18.43451 | -66.17082 | 2328 ft | 241 kts | 91° |
| 2026-05-06 02:39 | 18.43415 | -66.15369 | 2309 ft | 229 kts | 92° |
| 2026-05-06 02:39 | 18.43389 | -66.13741 | 2331 ft | 215 kts | 92° |
| 2026-05-06 02:39 | 18.43378 | -66.12174 | 2257 ft | 215 kts | 91° |
| 2026-05-06 02:39 | 18.43376 | -66.10606 | 1934 ft | 212 kts | 92° |
| 2026-05-06 02:40 | 18.43377 | -66.09082 | 1655 ft | 202 kts | 92° |
| 2026-05-06 02:40 | 18.43375 | -66.07652 | 1446 ft | 189 kts | 93° |
| 2026-05-06 02:40 | 18.43372 | -66.06273 | 1001 ft | 188 kts | 94° |
| 2026-05-06 02:40 | 18.43366 | -66.04939 | 711 ft | 179 kts | 91° |
| 2026-05-06 02:41 | 18.43363 | -66.03670 | 468 ft | 163 kts | 91° |
| 2026-05-06 02:41 | 18.43360 | -66.02534 | 250 ft | 149 kts | 91° |
| 2026-05-06 02:41 | 18.43358 | -66.01471 | 55 ft | 145 kts | 91° |
| 2026-05-06 02:41 | 18.43355 | -66.00490 | 15 ft | 116 kts | 91° |
| 2026-05-06 02:42 | 18.43354 | -65.99818 | 15 ft | 66 kts | 89° |
| 2026-05-06 02:42 | 18.43357 | -65.99429 | 15 ft | 45 kts | 85° |
| 2026-05-06 02:42 | 18.43355 | -65.99155 | 15 ft | 23 kts | 91° |
| 2026-05-06 02:42 | 18.43446 | -65.99089 | 15 ft | 18 kts | 324° |
| 2026-05-06 02:43 | 18.43459 | -65.99200 | 15 ft | 16 kts | 271° |
| 2026-05-06 02:43 | 18.43462 | -65.99335 | 15 ft | 20 kts | 271° |
| 2026-05-06 02:43 | 18.43463 | -65.99496 | 15 ft | 23 kts | 269° |